sensor_id;sensor_type;location;lat;lon;timestamp;pressure;altitude;pressure_sealevel;temperature;humidity
9035;BME280;4552;43.422;24.592;2023-04-10T00:02:21;100222.56;;;9.26;100.00
9035;BME280;4552;43.422;24.592;2023-04-10T00:04:48;100221.66;;;9.25;100.00
9035;BME280;4552;43.422;24.592;2023-04-10T00:17:21;100205.13;;;9.26;100.00
9035;BME280;4552;43.422;24.592;2023-04-10T00:19:48;100197.34;;;9.11;100.00
9035;BME280;4552;43.422;24.592;2023-04-10T00:22:15;100206.09;;;9.03;100.00
9035;BME280;4552;43.422;24.592;2023-04-10T00:24:42;100195.66;;;8.98;100.00
9035;BME280;4552;43.422;24.592;2023-04-10T00:27:09;100193.94;;;8.91;100.00
9035;BME280;4552;43.422;24.592;2023-04-10T00:29:36;100190.50;;;8.83;100.00
9035;BME280;4552;43.422;24.592;2023-04-10T00:32:26;100200.03;;;8.87;100.00
9035;BME280;4552;43.422;24.592;2023-04-10T00:34:55;100193.13;;;8.72;100.00
9035;BME280;4552;43.422;24.592;2023-04-10T00:37:32;100199.19;;;8.76;100.00
9035;BME280;4552;43.422;24.592;2023-04-10T00:39:59;100204.44;;;8.67;100.00
9035;BME280;4552;43.422;24.592;2023-04-10T00:42:26;100188.78;;;8.61;100.00
9035;BME280;4552;43.422;24.592;2023-04-10T00:44:54;100196.59;;;8.71;100.00
9035;BME280;4552;43.422;24.592;2023-04-10T00:47:21;100194.00;;;8.70;100.00
9035;BME280;4552;43.422;24.592;2023-04-10T00:49:49;100186.13;;;8.83;100.00
9035;BME280;4552;43.422;24.592;2023-04-10T00:55:38;100194.84;;;8.81;100.00
9035;BME280;4552;43.422;24.592;2023-04-10T00:58:05;100198.31;;;8.86;100.00
9035;BME280;4552;43.422;24.592;2023-04-10T01:00:32;100201.75;;;8.99;100.00
9035;BME280;4552;43.422;24.592;2023-04-10T01:02:59;100186.09;;;9.02;100.00
9035;BME280;4552;43.422;24.592;2023-04-10T01:05:30;100195.59;;;9.16;100.00
9035;BME280;4552;43.422;24.592;2023-04-10T01:08:06;100186.06;;;9.11;100.00
9035;BME280;4552;43.422;24.592;2023-04-10T01:10:39;100186.88;;;9.17;100.00
9035;BME280;4552;43.422;24.592;2023-04-10T01:13:15;100184.28;;;9.10;100.00
9035;BME280;4552;43.422;24.592;2023-04-10T01:15:45;100186.06;;;9.09;100.00
9035;BME280;4552;43.422;24.592;2023-04-10T01:18:18;100190.38;;;9.15;100.00
9035;BME280;4552;43.422;24.592;2023-04-10T01:20:48;100179.97;;;9.06;100.00
9035;BME280;4552;43.422;24.592;2023-04-10T01:26:24;100180.88;;;8.93;100.00
9035;BME280;4552;43.422;24.592;2023-04-10T01:29:00;100183.47;;;9.03;100.00
9035;BME280;4552;43.422;24.592;2023-04-10T01:31:35;100187.84;;;8.97;100.00
9035;BME280;4552;43.422;24.592;2023-04-10T01:34:07;100181.78;;;8.87;100.00
9035;BME280;4552;43.422;24.592;2023-04-10T01:43:19;100175.72;;;8.76;100.00
9035;BME280;4552;43.422;24.592;2023-04-10T01:45:50;100182.72;;;8.68;100.00
9035;BME280;4552;43.422;24.592;2023-04-10T01:48:17;100162.69;;;8.61;100.00
9035;BME280;4552;43.422;24.592;2023-04-10T01:50:45;100183.50;;;8.82;100.00
9035;BME280;4552;43.422;24.592;2023-04-10T01:53:13;100173.13;;;8.70;100.00
9035;BME280;4552;43.422;24.592;2023-04-10T01:55:40;100170.50;;;8.67;100.00
9035;BME280;4552;43.422;24.592;2023-04-10T01:58:27;100174.88;;;8.72;100.00
9035;BME280;4552;43.422;24.592;2023-04-10T02:00:55;100180.94;;;8.67;100.00
9035;BME280;4552;43.422;24.592;2023-04-10T02:03:23;100177.50;;;8.48;100.00
9035;BME280;4552;43.422;24.592;2023-04-10T02:12:38;100187.94;;;8.48;100.00
9035;BME280;4552;43.422;24.592;2023-04-10T02:15:08;100189.69;;;8.57;100.00
9035;BME280;4552;43.422;24.592;2023-04-10T02:17:38;100187.91;;;8.59;100.00
9035;BME280;4552;43.422;24.592;2023-04-10T02:46:41;100174.06;;;8.46;100.00
9035;BME280;4552;43.422;24.592;2023-04-10T02:49:08;100174.91;;;8.45;100.00
9035;BME280;4552;43.422;24.592;2023-04-10T02:51:35;100174.91;;;8.47;100.00
9035;BME280;4552;43.422;24.592;2023-04-10T02:54:02;100167.94;;;8.52;100.00
9035;BME280;4552;43.422;24.592;2023-04-10T02:56:32;100177.47;;;8.62;100.00
9035;BME280;4552;43.422;24.592;2023-04-10T02:58:59;100174.03;;;8.52;100.00
9035;BME280;4552;43.422;24.592;2023-04-10T03:01:26;100170.53;;;8.59;100.00
9035;BME280;4552;43.422;24.592;2023-04-10T03:03:54;100179.25;;;8.52;100.00
9035;BME280;4552;43.422;24.592;2023-04-10T03:06:22;100172.28;;;8.45;100.00
9035;BME280;4552;43.422;24.592;2023-04-10T03:08:51;100180.13;;;8.38;100.00
9035;BME280;4552;43.422;24.592;2023-04-10T03:11:23;100169.69;;;8.47;100.00
9035;BME280;4552;43.422;24.592;2023-04-10T03:13:55;100176.66;;;8.48;100.00
9035;BME280;4552;43.422;24.592;2023-04-10T03:16:22;100174.88;;;8.57;100.00
9035;BME280;4552;43.422;24.592;2023-04-10T03:18:49;100173.16;;;8.55;100.00
9035;BME280;4552;43.422;24.592;2023-04-10T03:21:20;100172.28;;;8.50;100.00
9035;BME280;4552;43.422;24.592;2023-04-10T03:23:47;100187.94;;;8.39;100.00
9035;BME280;4552;43.422;24.592;2023-04-10T03:26:14;100185.34;;;8.44;100.00
9035;BME280;4552;43.422;24.592;2023-04-10T03:28:41;100162.75;;;8.37;100.00
9035;BME280;4552;43.422;24.592;2023-04-10T03:31:26;100190.50;;;8.65;100.00
9035;BME280;4552;43.422;24.592;2023-04-10T03:33:53;100195.75;;;8.68;100.00
9035;BME280;4552;43.422;24.592;2023-04-10T05:05:18;100218.19;;;9.32;100.00
9035;BME280;4552;43.422;24.592;2023-04-10T05:07:45;100226.00;;;9.32;100.00
9035;BME280;4552;43.422;24.592;2023-04-10T05:10:12;100226.75;;;9.55;100.00
9035;BME280;4552;43.422;24.592;2023-04-10T05:12:39;100230.13;;;9.75;100.00
9035;BME280;4552;43.422;24.592;2023-04-10T05:15:08;100234.25;;;10.18;100.00
9035;BME280;4552;43.422;24.592;2023-04-10T05:17:35;100231.44;;;10.39;100.00
9035;BME280;4552;43.422;24.592;2023-04-10T05:20:02;100243.25;;;10.86;100.00
9035;BME280;4552;43.422;24.592;2023-04-10T05:22:31;100233.22;;;11.24;98.77
9035;BME280;4552;43.422;24.592;2023-04-10T05:24:58;100252.50;;;11.20;97.58
9035;BME280;4552;43.422;24.592;2023-04-10T05:27:25;100247.44;;;11.03;97.61
9035;BME280;4552;43.422;24.592;2023-04-10T05:29:54;100251.13;;;10.84;98.47
9035;BME280;4552;43.422;24.592;2023-04-10T05:32:21;100232.50;;;11.10;98.87
9035;BME280;4552;43.422;24.592;2023-04-10T05:34:48;100242.97;;;11.10;97.12
9035;BME280;4552;43.422;24.592;2023-04-10T05:40:38;100247.69;;;10.78;99.74
9035;BME280;4552;43.422;24.592;2023-04-10T05:43:05;100249.41;;;10.82;99.51
9035;BME280;4552;43.422;24.592;2023-04-10T05:45:32;100251.16;;;10.78;98.77
9035;BME280;4552;43.422;24.592;2023-04-10T05:48:02;100242.47;;;10.73;99.24
9035;BME280;4552;43.422;24.592;2023-04-10T05:57:36;100246.94;;;10.67;99.02
9035;BME280;4552;43.422;24.592;2023-04-10T06:00:04;100246.78;;;10.82;99.78
9035;BME280;4552;43.422;24.592;2023-04-10T06:02:31;100238.81;;;10.92;99.28
9035;BME280;4552;43.422;24.592;2023-04-10T06:05:06;100253.34;;;11.19;97.74
9035;BME280;4552;43.422;24.592;2023-04-10T06:07:33;100247.31;;;11.14;96.58
9035;BME280;4552;43.422;24.592;2023-04-10T06:10:00;100235.66;;;11.39;96.17
9035;BME280;4552;43.422;24.592;2023-04-10T06:12:27;100239.06;;;11.45;96.05
9035;BME280;4552;43.422;24.592;2023-04-10T06:14:55;100247.47;;;11.74;95.82
9035;BME280;4552;43.422;24.592;2023-04-10T06:17:22;100241.75;;;12.06;92.06
9035;BME280;4552;43.422;24.592;2023-04-10T06:19:50;100243.41;;;12.13;91.16
9035;BME280;4552;43.422;24.592;2023-04-10T06:22:17;100248.94;;;11.95;92.03
9035;BME280;4552;43.422;24.592;2023-04-10T06:24:44;100244.34;;;12.09;91.90
9035;BME280;4552;43.422;24.592;2023-04-10T06:27:11;100237.63;;;12.46;90.67
9035;BME280;4552;43.422;24.592;2023-04-10T06:29:38;100239.19;;;12.58;87.00
9035;BME280;4552;43.422;24.592;2023-04-10T06:32:10;100248.13;;;12.96;87.05
9035;BME280;4552;43.422;24.592;2023-04-10T06:34:37;100246.56;;;12.86;85.81
9035;BME280;4552;43.422;24.592;2023-04-10T06:37:03;100249.78;;;12.50;86.45
9035;BME280;4552;43.422;24.592;2023-04-10T06:39:30;100227.22;;;12.40;87.06
9035;BME280;4552;43.422;24.592;2023-04-10T06:41:57;100247.56;;;13.28;85.66
9035;BME280;4552;43.422;24.592;2023-04-10T06:44:25;100243.97;;;13.32;83.43
9035;BME280;4552;43.422;24.592;2023-04-10T06:46:52;100251.28;;;13.16;83.97
9035;BME280;4552;43.422;24.592;2023-04-10T06:49:20;100252.75;;;12.82;84.74
9035;BME280;4552;43.422;24.592;2023-04-10T07:40:12;100255.44;;;13.70;77.92
9035;BME280;4552;43.422;24.592;2023-04-10T07:42:53;100247.34;;;13.79;75.03
9035;BME280;4552;43.422;24.592;2023-04-10T07:45:20;100251.59;;;14.23;75.69
9035;BME280;4552;43.422;24.592;2023-04-10T07:47:54;100249.47;;;14.40;72.32
9035;BME280;4552;43.422;24.592;2023-04-10T07:50:22;100245.69;;;14.52;70.91
9035;BME280;4552;43.422;24.592;2023-04-10T07:52:54;100244.72;;;14.18;69.83
9035;BME280;4552;43.422;24.592;2023-04-10T07:55:23;100254.38;;;14.54;68.11
9035;BME280;4552;43.422;24.592;2023-04-10T07:57:50;100235.16;;;14.52;67.58
9035;BME280;4552;43.422;24.592;2023-04-10T08:00:17;100246.50;;;14.54;68.54
9035;BME280;4552;43.422;24.592;2023-04-10T08:02:44;100257.91;;;14.88;67.05
9035;BME280;4552;43.422;24.592;2023-04-10T08:05:11;100254.47;;;15.18;65.78
9035;BME280;4552;43.422;24.592;2023-04-10T08:08:07;100253.81;;;14.78;65.93
9035;BME280;4552;43.422;24.592;2023-04-10T08:10:36;100251.09;;;15.13;65.80
9035;BME280;4552;43.422;24.592;2023-04-10T08:13:04;100248.03;;;15.28;64.28
9035;BME280;4552;43.422;24.592;2023-04-10T08:15:31;100254.97;;;15.63;63.94
9035;BME280;4552;43.422;24.592;2023-04-10T08:17:58;100254.69;;;16.01;61.78
9035;BME280;4552;43.422;24.592;2023-04-10T08:20:25;100243.75;;;15.24;64.15
9035;BME280;4552;43.422;24.592;2023-04-10T08:22:54;100248.44;;;16.03;64.16
9035;BME280;4552;43.422;24.592;2023-04-10T08:25:21;100254.84;;;15.96;62.26
9035;BME280;4552;43.422;24.592;2023-04-10T08:27:50;100247.75;;;15.69;61.61
9035;BME280;4552;43.422;24.592;2023-04-10T08:30:17;100243.47;;;15.94;60.38
9035;BME280;4552;43.422;24.592;2023-04-10T08:32:52;100249.75;;;15.90;61.12
9035;BME280;4552;43.422;24.592;2023-04-10T08:35:20;100237.28;;;15.35;62.49
9035;BME280;4552;43.422;24.592;2023-04-10T08:49:00;100248.03;;;14.96;64.11
9035;BME280;4552;43.422;24.592;2023-04-10T08:51:31;100226.16;;;14.59;66.00
9035;BME280;4552;43.422;24.592;2023-04-10T08:54:05;100227.81;;;14.96;64.77
9035;BME280;4552;43.422;24.592;2023-04-10T08:56:33;100224.59;;;15.17;63.23
9035;BME280;4552;43.422;24.592;2023-04-10T08:59:02;100223.72;;;15.17;63.48
9035;BME280;4552;43.422;24.592;2023-04-10T09:01:29;100232.38;;;15.54;62.23
9035;BME280;4552;43.422;24.592;2023-04-10T09:10:53;100209.53;;;15.21;63.35
9035;BME280;4552;43.422;24.592;2023-04-10T09:13:34;100195.06;;;15.66;62.26
9035;BME280;4552;43.422;24.592;2023-04-10T09:16:01;100209.16;;;15.65;61.40
9035;BME280;4552;43.422;24.592;2023-04-10T09:18:45;100201.19;;;15.36;61.46
9035;BME280;4552;43.422;24.592;2023-04-10T09:21:15;100203.47;;;15.19;61.53
9035;BME280;4552;43.422;24.592;2023-04-10T09:23:43;100194.38;;;15.59;61.36
9035;BME280;4552;43.422;24.592;2023-04-10T09:26:28;100188.25;;;16.14;58.84
9035;BME280;4552;43.422;24.592;2023-04-10T09:28:56;100182.44;;;16.03;58.57
9035;BME280;4552;43.422;24.592;2023-04-10T09:31:29;100190.44;;;15.74;58.87
9035;BME280;4552;43.422;24.592;2023-04-10T09:34:11;100189.13;;;16.15;57.53
9035;BME280;4552;43.422;24.592;2023-04-10T09:36:38;100181.97;;;16.18;57.01
9035;BME280;4552;43.422;24.592;2023-04-10T09:39:07;100178.84;;;15.78;57.31
9035;BME280;4552;43.422;24.592;2023-04-10T09:41:48;100171.19;;;15.71;57.82
9035;BME280;4552;43.422;24.592;2023-04-10T09:44:17;100167.41;;;16.05;56.59
9035;BME280;4552;43.422;24.592;2023-04-10T09:46:45;100164.94;;;16.27;55.07
9035;BME280;4552;43.422;24.592;2023-04-10T09:49:14;100170.63;;;15.59;56.61
9035;BME280;4552;43.422;24.592;2023-04-10T09:51:41;100160.56;;;15.72;57.83
9035;BME280;4552;43.422;24.592;2023-04-10T09:54:08;100152.75;;;15.69;57.32
9035;BME280;4552;43.422;24.592;2023-04-10T09:56:37;100153.78;;;15.91;57.96
9035;BME280;4552;43.422;24.592;2023-04-10T09:59:06;100150.19;;;16.47;57.44
9035;BME280;4552;43.422;24.592;2023-04-10T10:01:36;100146.69;;;16.96;50.77
9035;BME280;4552;43.422;24.592;2023-04-10T10:04:06;100156.44;;;17.18;46.76
9035;BME280;4552;43.422;24.592;2023-04-10T10:20:27;100131.63;;;15.69;53.70
9035;BME280;4552;43.422;24.592;2023-04-10T10:22:54;100123.91;;;15.63;52.16
9035;BME280;4552;43.422;24.592;2023-04-10T10:25:23;100122.09;;;15.91;51.03
9035;BME280;4552;43.422;24.592;2023-04-10T10:27:51;100120.16;;;16.24;51.03
9035;BME280;4552;43.422;24.592;2023-04-10T10:30:19;100128.19;;;16.71;49.22
9035;BME280;4552;43.422;24.592;2023-04-10T10:33:10;100100.47;;;17.06;48.35
9035;BME280;4552;43.422;24.592;2023-04-10T10:35:53;100108.47;;;17.51;47.26
9035;BME280;4552;43.422;24.592;2023-04-10T10:56:34;100089.88;;;17.06;41.85
9035;BME280;4552;43.422;24.592;2023-04-10T10:59:15;100092.97;;;16.20;43.07
9035;BME280;4552;43.422;24.592;2023-04-10T11:02:11;100075.78;;;16.33;42.47
9035;BME280;4552;43.422;24.592;2023-04-10T11:04:48;100065.34;;;16.79;42.12
9035;BME280;4552;43.422;24.592;2023-04-10T11:07:16;100067.00;;;16.82;42.18
9035;BME280;4552;43.422;24.592;2023-04-10T11:09:44;100063.81;;;16.72;42.08
9035;BME280;4552;43.422;24.592;2023-04-10T11:12:14;100060.94;;;16.78;41.30
9035;BME280;4552;43.422;24.592;2023-04-10T11:14:42;100069.69;;;16.80;41.24
9035;BME280;4552;43.422;24.592;2023-04-10T11:17:11;100068.13;;;16.52;43.11
9035;BME280;4552;43.422;24.592;2023-04-10T11:19:58;100071.72;;;16.23;44.94
9035;BME280;4552;43.422;24.592;2023-04-10T11:22:31;100054.91;;;16.01;45.70
9035;BME280;4552;43.422;24.592;2023-04-10T11:25:18;100060.84;;;16.08;45.50
9035;BME280;4552;43.422;24.592;2023-04-10T11:28:08;100064.00;;;16.17;43.25
9035;BME280;4552;43.422;24.592;2023-04-10T11:30:35;100053.28;;;16.48;43.55
9035;BME280;4552;43.422;24.592;2023-04-10T11:33:03;100053.84;;;16.31;42.89
9035;BME280;4552;43.422;24.592;2023-04-10T11:35:31;100052.63;;;16.41;43.14
9035;BME280;4552;43.422;24.592;2023-04-10T12:21:20;99995.50;;;16.37;44.59
9035;BME280;4552;43.422;24.592;2023-04-10T12:23:47;99987.97;;;16.27;43.34
9035;BME280;4552;43.422;24.592;2023-04-10T12:26:15;99968.31;;;16.34;42.79
9035;BME280;4552;43.422;24.592;2023-04-10T12:28:50;99969.69;;;16.21;42.11
9035;BME280;4552;43.422;24.592;2023-04-10T12:34:03;99986.25;;;16.01;41.97
9035;BME280;4552;43.422;24.592;2023-04-10T12:36:32;99977.84;;;16.15;40.78
9035;BME280;4552;43.422;24.592;2023-04-10T12:39:02;99967.81;;;16.00;40.14
9035;BME280;4552;43.422;24.592;2023-04-10T12:41:39;99961.88;;;15.93;40.47
9035;BME280;4552;43.422;24.592;2023-04-10T12:44:07;99966.88;;;16.25;40.04
9035;BME280;4552;43.422;24.592;2023-04-10T12:46:35;99972.44;;;15.93;41.22
9035;BME280;4552;43.422;24.592;2023-04-10T12:49:09;99963.50;;;15.97;41.87
9035;BME280;4552;43.422;24.592;2023-04-10T12:58:18;99944.88;;;16.25;40.72
9035;BME280;4552;43.422;24.592;2023-04-10T13:00:45;99949.97;;;16.54;41.06
9035;BME280;4552;43.422;24.592;2023-04-10T13:03:13;99940.84;;;16.85;40.92
9035;BME280;4552;43.422;24.592;2023-04-10T13:05:40;99929.63;;;16.79;41.74
9035;BME280;4552;43.422;24.592;2023-04-10T13:08:11;99941.09;;;17.22;40.94
9035;BME280;4552;43.422;24.592;2023-04-10T13:10:38;99916.59;;;16.74;42.18
9035;BME280;4552;43.422;24.592;2023-04-10T13:13:06;99927.38;;;17.35;41.75
9035;BME280;4552;43.422;24.592;2023-04-10T13:15:37;99943.91;;;17.18;42.52
9035;BME280;4552;43.422;24.592;2023-04-10T13:18:05;99945.47;;;17.02;43.42
9035;BME280;4552;43.422;24.592;2023-04-10T13:20:33;99936.56;;;16.81;43.96
9035;BME280;4552;43.422;24.592;2023-04-10T13:23:00;99924.66;;;16.48;44.52
9035;BME280;4552;43.422;24.592;2023-04-10T13:25:40;99933.56;;;16.69;44.22
9035;BME280;4552;43.422;24.592;2023-04-10T13:28:07;99920.78;;;16.80;44.18
9035;BME280;4552;43.422;24.592;2023-04-10T13:30:56;99923.84;;;16.69;44.37
9035;BME280;4552;43.422;24.592;2023-04-10T13:33:23;99920.56;;;16.63;45.27
9035;BME280;4552;43.422;24.592;2023-04-10T13:35:50;99923.00;;;16.46;45.06
9035;BME280;4552;43.422;24.592;2023-04-10T13:38:17;99907.47;;;16.60;44.99
9035;BME280;4552;43.422;24.592;2023-04-10T13:40:44;99897.88;;;16.57;44.74
9035;BME280;4552;43.422;24.592;2023-04-10T13:43:12;99915.94;;;16.46;45.33
9035;BME280;4552;43.422;24.592;2023-04-10T13:45:40;99909.00;;;16.42;45.50
9035;BME280;4552;43.422;24.592;2023-04-10T13:48:08;99921.63;;;16.34;46.01
9035;BME280;4552;43.422;24.592;2023-04-10T13:50:35;99905.84;;;16.10;46.25
9035;BME280;4552;43.422;24.592;2023-04-10T13:53:02;99898.41;;;16.44;46.17
9035;BME280;4552;43.422;24.592;2023-04-10T13:55:29;99900.59;;;16.56;45.53
9035;BME280;4552;43.422;24.592;2023-04-10T13:57:56;99891.94;;;16.95;45.44
9035;BME280;4552;43.422;24.592;2023-04-10T14:00:23;99884.63;;;17.02;44.01
9035;BME280;4552;43.422;24.592;2023-04-10T14:02:50;99871.97;;;16.88;44.59
9035;BME280;4552;43.422;24.592;2023-04-10T14:05:18;99897.78;;;16.82;44.38
9035;BME280;4552;43.422;24.592;2023-04-10T14:07:45;99896.06;;;16.59;45.02
9035;BME280;4552;43.422;24.592;2023-04-10T14:10:21;99881.53;;;16.23;45.56
9035;BME280;4552;43.422;24.592;2023-04-10T14:12:48;99889.75;;;16.16;45.71
9035;BME280;4552;43.422;24.592;2023-04-10T14:15:16;99884.06;;;16.03;45.20
9035;BME280;4552;43.422;24.592;2023-04-10T14:17:43;99871.66;;;16.05;45.29
9035;BME280;4552;43.422;24.592;2023-04-10T14:20:10;99869.16;;;16.25;44.67
9035;BME280;4552;43.422;24.592;2023-04-10T14:36:06;99866.50;;;17.14;43.79
9035;BME280;4552;43.422;24.592;2023-04-10T14:38:33;99854.09;;;16.73;43.73
9035;BME280;4552;43.422;24.592;2023-04-10T14:41:01;99881.09;;;16.35;44.42
9035;BME280;4552;43.422;24.592;2023-04-10T14:43:28;99860.34;;;16.02;45.82
9035;BME280;4552;43.422;24.592;2023-04-10T14:45:55;99862.94;;;16.03;46.54
9035;BME280;4552;43.422;24.592;2023-04-10T14:48:22;99887.75;;;15.99;46.56
9035;BME280;4552;43.422;24.592;2023-04-10T14:50:49;99880.81;;;15.47;47.22
9035;BME280;4552;43.422;24.592;2023-04-10T14:53:17;99894.78;;;15.23;49.32
9035;BME280;4552;43.422;24.592;2023-04-10T14:55:46;99897.13;;;14.79;49.97
9035;BME280;4552;43.422;24.592;2023-04-10T14:58:13;99884.53;;;14.32;50.86
9035;BME280;4552;43.422;24.592;2023-04-10T15:00:54;99898.72;;;13.63;56.91
9035;BME280;4552;43.422;24.592;2023-04-10T15:03:23;99919.72;;;12.17;72.31
9035;BME280;4552;43.422;24.592;2023-04-10T15:05:57;99919.31;;;11.45;78.55
9035;BME280;4552;43.422;24.592;2023-04-10T15:08:26;99892.34;;;11.39;82.22
9035;BME280;4552;43.422;24.592;2023-04-10T15:10:53;99869.81;;;11.30;84.15
9035;BME280;4552;43.422;24.592;2023-04-10T15:13:21;99858.13;;;11.46;84.31
9035;BME280;4552;43.422;24.592;2023-04-10T15:15:49;99859.75;;;11.55;83.11
9035;BME280;4552;43.422;24.592;2023-04-10T15:18:16;99855.41;;;11.52;87.12
9035;BME280;4552;43.422;24.592;2023-04-10T15:20:44;99868.06;;;11.78;89.61
9035;BME280;4552;43.422;24.592;2023-04-10T15:27:01;99870.78;;;12.16;87.57
9035;BME280;4552;43.422;24.592;2023-04-10T15:29:28;99857.44;;;12.25;89.99
9035;BME280;4552;43.422;24.592;2023-04-10T15:32:09;99854.41;;;12.43;90.86
9035;BME280;4552;43.422;24.592;2023-04-10T15:34:36;99859.38;;;12.55;94.25
9035;BME280;4552;43.422;24.592;2023-04-10T15:50:31;99845.22;;;12.99;98.54
9035;BME280;4552;43.422;24.592;2023-04-10T15:52:59;99845.69;;;13.14;99.07
9035;BME280;4552;43.422;24.592;2023-04-10T15:55:26;99838.84;;;13.09;97.59
9035;BME280;4552;43.422;24.592;2023-04-10T15:57:53;99846.81;;;13.06;97.27
9035;BME280;4552;43.422;24.592;2023-04-10T16:00:20;99856.97;;;13.19;96.13
9035;BME280;4552;43.422;24.592;2023-04-10T16:02:49;99867.31;;;13.25;87.67
9035;BME280;4552;43.422;24.592;2023-04-10T16:05:16;99867.81;;;13.06;83.98
9035;BME280;4552;43.422;24.592;2023-04-10T18:48:33;99910.50;;;11.98;85.05
9035;BME280;4552;43.422;24.592;2023-04-10T18:51:00;99898.44;;;11.88;86.13
9035;BME280;4552;43.422;24.592;2023-04-10T18:53:27;99906.31;;;11.88;85.38
9035;BME280;4552;43.422;24.592;2023-04-10T18:55:55;99902.69;;;11.95;86.81
9035;BME280;4552;43.422;24.592;2023-04-10T18:58:21;99895.69;;;11.94;87.55
9035;BME280;4552;43.422;24.592;2023-04-10T19:00:56;99880.38;;;11.73;89.57
9035;BME280;4552;43.422;24.592;2023-04-10T19:03:38;99879.81;;;11.56;90.11
9035;BME280;4552;43.422;24.592;2023-04-10T19:06:25;99888.72;;;11.47;92.45
9035;BME280;4552;43.422;24.592;2023-04-10T19:08:52;99884.25;;;11.51;93.50
9035;BME280;4552;43.422;24.592;2023-04-10T19:11:30;99884.59;;;11.33;92.94
9035;BME280;4552;43.422;24.592;2023-04-10T19:13:57;99877.63;;;11.32;93.83
9035;BME280;4552;43.422;24.592;2023-04-10T19:16:24;99873.41;;;11.25;93.35
9035;BME280;4552;43.422;24.592;2023-04-10T19:19:09;99879.28;;;11.37;92.59
9035;BME280;4552;43.422;24.592;2023-04-10T19:21:36;99865.47;;;11.29;92.67
9035;BME280;4552;43.422;24.592;2023-04-10T19:24:07;99868.59;;;11.48;89.23
9035;BME280;4552;43.422;24.592;2023-04-10T19:26:34;99863.16;;;11.60;88.70
9035;BME280;4552;43.422;24.592;2023-04-10T19:29:02;99859.00;;;11.47;89.13
9035;BME280;4552;43.422;24.592;2023-04-10T19:31:29;99848.47;;;11.50;86.19
9035;BME280;4552;43.422;24.592;2023-04-10T19:33:56;99847.56;;;11.51;83.43
9035;BME280;4552;43.422;24.592;2023-04-10T19:36:25;99856.34;;;11.50;82.56
9035;BME280;4552;43.422;24.592;2023-04-10T19:38:52;99846.53;;;11.59;81.47
9035;BME280;4552;43.422;24.592;2023-04-10T19:41:21;99860.28;;;11.73;82.15
9035;BME280;4552;43.422;24.592;2023-04-10T19:43:48;99853.94;;;11.83;82.00
9035;BME280;4552;43.422;24.592;2023-04-10T19:46:25;99867.56;;;12.02;81.57
9035;BME280;4552;43.422;24.592;2023-04-10T19:48:52;99849.28;;;11.97;83.03
9035;BME280;4552;43.422;24.592;2023-04-10T19:51:20;99864.75;;;12.11;85.78
9035;BME280;4552;43.422;24.592;2023-04-10T20:20:43;99865.63;;;12.11;82.90
9035;BME280;4552;43.422;24.592;2023-04-10T20:23:10;99860.44;;;12.08;85.37
9035;BME280;4552;43.422;24.592;2023-04-10T20:25:37;99863.13;;;12.05;83.34
9035;BME280;4552;43.422;24.592;2023-04-10T20:28:06;99852.00;;;11.93;83.71
9035;BME280;4552;43.422;24.592;2023-04-10T20:30:42;99856.47;;;12.29;80.57
9035;BME280;4552;43.422;24.592;2023-04-10T20:33:09;99844.44;;;12.20;77.52
9035;BME280;4552;43.422;24.592;2023-04-10T20:35:37;99859.94;;;12.31;77.08
9035;BME280;4552;43.422;24.592;2023-04-10T20:38:24;99859.75;;;12.39;78.16
9035;BME280;4552;43.422;24.592;2023-04-10T20:40:51;99859.06;;;12.31;78.30
9035;BME280;4552;43.422;24.592;2023-04-10T20:43:17;99858.03;;;12.38;77.76
9035;BME280;4552;43.422;24.592;2023-04-10T20:45:45;99855.97;;;12.50;77.41
9035;BME280;4552;43.422;24.592;2023-04-10T20:48:25;99848.94;;;12.52;79.20
9035;BME280;4552;43.422;24.592;2023-04-10T20:50:52;99841.97;;;12.51;78.47
9035;BME280;4552;43.422;24.592;2023-04-10T20:53:19;99837.28;;;12.27;78.27
9035;BME280;4552;43.422;24.592;2023-04-10T20:55:52;99847.56;;;12.38;79.54
9035;BME280;4552;43.422;24.592;2023-04-10T20:58:19;99827.63;;;12.27;80.83
9035;BME280;4552;43.422;24.592;2023-04-10T21:01:00;99839.69;;;12.38;80.47
9035;BME280;4552;43.422;24.592;2023-04-10T21:03:27;99837.75;;;12.44;80.40
9035;BME280;4552;43.422;24.592;2023-04-10T21:05:55;99817.72;;;12.40;80.02
9035;BME280;4552;43.422;24.592;2023-04-10T21:08:22;99831.63;;;12.45;81.82
9035;BME280;4552;43.422;24.592;2023-04-10T21:10:50;99828.66;;;12.22;82.85
9035;BME280;4552;43.422;24.592;2023-04-10T21:13:17;99817.88;;;11.94;84.66
9035;BME280;4552;43.422;24.592;2023-04-10T21:15:44;99815.66;;;11.76;86.35
9035;BME280;4552;43.422;24.592;2023-04-10T21:18:18;99824.53;;;11.68;87.09
9035;BME280;4552;43.422;24.592;2023-04-10T21:20:45;99827.13;;;11.69;86.69
9035;BME280;4552;43.422;24.592;2023-04-10T21:46:45;99823.13;;;11.05;95.12
9035;BME280;4552;43.422;24.592;2023-04-10T21:49:12;99825.00;;;10.97;95.38
9035;BME280;4552;43.422;24.592;2023-04-10T21:51:39;99822.03;;;11.15;95.11
9035;BME280;4552;43.422;24.592;2023-04-10T21:57:30;99825.47;;;11.20;92.05
9035;BME280;4552;43.422;24.592;2023-04-10T21:59:58;99813.34;;;11.13;92.37
9035;BME280;4552;43.422;24.592;2023-04-10T22:02:42;99809.41;;;10.89;93.23
9035;BME280;4552;43.422;24.592;2023-04-10T22:05:09;99811.13;;;10.90;93.84
9035;BME280;4552;43.422;24.592;2023-04-10T22:07:36;99820.78;;;10.87;95.25
9035;BME280;4552;43.422;24.592;2023-04-10T22:10:04;99820.66;;;10.96;95.14
9035;BME280;4552;43.422;24.592;2023-04-10T22:12:44;99806.09;;;10.80;95.44
9035;BME280;4552;43.422;24.592;2023-04-10T22:15:10;99807.94;;;10.72;95.72
9035;BME280;4552;43.422;24.592;2023-04-10T22:17:39;99819.31;;;10.71;97.11
9035;BME280;4552;43.422;24.592;2023-04-10T22:20:10;99807.00;;;10.77;97.78
9035;BME280;4552;43.422;24.592;2023-04-10T22:22:36;99812.72;;;11.00;98.69
9035;BME280;4552;43.422;24.592;2023-04-10T22:25:04;99806.03;;;10.83;98.46
9035;BME280;4552;43.422;24.592;2023-04-10T22:27:40;99811.50;;;11.18;98.29
9035;BME280;4552;43.422;24.592;2023-04-10T22:30:08;99816.81;;;11.15;97.76
9035;BME280;4552;43.422;24.592;2023-04-10T22:32:36;99817.91;;;11.03;97.45